createdAt,value
2022-09-22T00:04:29.143Z,10.57
2022-09-22T00:09:03.918Z,10.18
2022-09-22T00:13:38.014Z,12.60
2022-09-22T00:18:13.386Z,11.82
2022-09-22T00:22:50.871Z,11.33
2022-09-22T00:27:25.604Z,12.27
2022-09-22T00:32:04.901Z,12.05
2022-09-22T00:36:42.958Z,11.23
2022-09-22T00:41:19.509Z,11.20
2022-09-22T00:45:58.273Z,11.82
2022-09-22T00:50:32.625Z,11.70
2022-09-22T00:55:13.345Z,11.15
2022-09-22T00:59:49.195Z,11.43
2022-09-22T01:04:24.143Z,11.50
2022-09-22T01:08:59.827Z,11.13
2022-09-22T01:13:46.603Z,11.45
2022-09-22T01:18:25.891Z,10.90
2022-09-22T01:23:28.447Z,11.77
2022-09-22T01:28:36.648Z,13.27
2022-09-22T01:33:23.274Z,11.00
2022-09-22T01:38:05.891Z,12.13
2022-09-22T01:42:45.270Z,11.52
2022-09-22T01:47:23.164Z,10.73
2022-09-22T01:52:01.013Z,10.23
2022-09-22T01:56:37.275Z,10.37
2022-09-22T02:01:15.173Z,11.10
2022-09-22T02:05:54.863Z,10.30
2022-09-22T02:10:36.165Z,11.33
2022-09-22T02:15:31.442Z,11.45
2022-09-22T02:20:07.079Z,11.90
2022-09-22T02:24:42.375Z,11.30
2022-09-22T02:29:17.856Z,11.10
2022-09-22T02:33:53.016Z,11.45
2022-09-22T02:38:33.953Z,11.55
2022-09-22T02:43:13.781Z,10.37
2022-09-22T02:48:13.435Z,10.43
2022-09-22T02:52:47.360Z,9.70
2022-09-22T02:57:02.806Z,10.37
2022-09-22T03:01:16.750Z,11.00
2022-09-22T03:05:31.969Z,11.55
2022-09-22T03:09:45.991Z,11.50
2022-09-22T03:13:59.978Z,11.75
2022-09-22T03:18:14.093Z,11.63
2022-09-22T03:22:29.420Z,12.13
2022-09-22T03:26:43.188Z,11.57
2022-09-22T03:30:56.906Z,12.32
2022-09-22T03:35:11.061Z,12.07
2022-09-22T03:39:26.501Z,12.77
2022-09-22T03:43:40.120Z,11.55
2022-09-22T03:47:54.390Z,11.35
2022-09-22T03:52:08.222Z,11.23
2022-09-22T03:56:23.256Z,12.05
2022-09-22T04:00:37.113Z,11.70
2022-09-22T04:04:51.759Z,11.68
2022-09-22T04:09:06.073Z,10.97
2022-09-22T04:13:21.152Z,12.07
2022-09-22T04:17:35.523Z,12.23
2022-09-22T04:21:53.196Z,11.93
2022-09-22T04:26:10.139Z,12.00
2022-09-22T04:30:25.493Z,11.77
2022-09-22T04:34:44.603Z,11.23
2022-09-22T04:39:03.071Z,11.98
2022-09-22T04:43:17.109Z,12.15
2022-09-22T04:47:32.357Z,12.07
2022-09-22T04:51:46.433Z,12.60
2022-09-22T04:56:00.274Z,13.32
2022-09-22T05:00:14.564Z,12.77
2022-09-22T05:04:29.976Z,12.77
2022-09-22T05:08:43.637Z,13.38
2022-09-22T05:12:57.334Z,14.73
2022-09-22T05:17:11.049Z,14.13
2022-09-22T05:21:26.182Z,11.88
2022-09-22T05:25:40.286Z,10.85
2022-09-22T05:29:53.914Z,9.25
2022-09-22T05:34:07.668Z,6.90
2022-09-22T05:38:22.843Z,7.45
2022-09-22T05:42:41.003Z,7.38
2022-09-22T05:46:54.675Z,7.97
2022-09-22T05:51:08.466Z,7.80
2022-09-22T05:55:23.565Z,8.07
2022-09-22T05:59:37.240Z,8.00
2022-09-22T06:03:50.953Z,9.65
2022-09-22T06:08:06.666Z,8.55
2022-09-22T06:12:22.518Z,8.18
2022-09-22T06:16:36.290Z,8.40
2022-09-22T06:20:50.202Z,7.80
2022-09-22T06:25:04.127Z,6.28
2022-09-22T06:29:19.880Z,6.10
2022-09-22T06:33:33.988Z,5.72
2022-09-22T06:37:51.350Z,5.60
2022-09-22T06:42:05.428Z,6.10
2022-09-22T06:46:21.278Z,5.38
2022-09-22T06:50:34.999Z,5.65
2022-09-22T06:54:51.327Z,6.20
2022-09-22T06:59:10.477Z,5.90
2022-09-22T07:03:26.456Z,5.30
2022-09-22T07:07:40.313Z,6.35
2022-09-22T07:11:54.007Z,6.00
2022-09-22T07:16:09.582Z,5.32
2022-09-22T07:20:24.781Z,5.60
2022-09-22T07:24:38.427Z,5.47
2022-09-22T07:28:53.859Z,5.72
2022-09-22T07:33:07.504Z,5.22
2022-09-22T07:37:23.578Z,5.47
2022-09-22T07:41:41.872Z,5.33
2022-09-22T07:45:57.876Z,6.00
2022-09-22T07:50:11.611Z,4.80
2022-09-22T07:54:27.661Z,5.30
2022-09-22T07:58:45.983Z,5.30
2022-09-22T08:03:01.317Z,5.53
2022-09-22T08:07:15.135Z,5.70
2022-09-22T08:11:30.727Z,5.18
2022-09-22T08:15:44.434Z,5.57
2022-09-22T08:19:59.432Z,4.70
2022-09-22T08:24:14.819Z,4.33
2022-09-22T08:28:29.908Z,4.10
2022-09-22T08:32:43.865Z,3.28
2022-09-22T08:36:58.563Z,2.70
2022-09-22T08:41:18.249Z,3.10
2022-09-22T08:45:38.354Z,3.25
2022-09-22T08:50:11.216Z,4.30
2022-09-22T08:54:28.284Z,3.63
2022-09-22T08:58:47.579Z,3.55
2022-09-22T09:03:17.272Z,3.25
2022-09-22T09:07:43.967Z,3.27
2022-09-22T09:12:26.859Z,3.55
2022-09-22T09:16:48.328Z,3.88
2022-09-22T09:21:07.593Z,3.57
2022-09-22T09:25:28.121Z,3.42
2022-09-22T09:29:48.786Z,4.00
2022-09-22T09:34:06.168Z,3.50
2022-09-22T09:38:28.297Z,3.03
2022-09-22T09:42:46.287Z,2.80
2022-09-22T09:47:06.765Z,3.45
2022-09-22T09:51:21.734Z,3.47
2022-09-22T09:55:36.958Z,3.30
2022-09-22T10:00:32.944Z,3.33
2022-09-22T10:04:52.430Z,3.23
2022-09-22T10:09:06.213Z,3.05
2022-09-22T10:13:38.251Z,2.00
2022-09-22T10:17:52.296Z,2.07
2022-09-22T10:22:23.052Z,2.50
2022-09-22T10:26:37.229Z,4.55
2022-09-22T10:31:00.286Z,2.63
2022-09-22T10:35:27.757Z,2.10
2022-09-22T10:39:45.772Z,2.25
2022-09-22T10:44:20.924Z,1.90
2022-09-22T10:48:43.004Z,2.27
2022-09-22T10:53:04.215Z,1.90
2022-09-22T10:57:29.358Z,1.80
2022-09-22T11:01:57.122Z,2.20
2022-09-22T11:06:42.640Z,1.92
2022-09-22T11:11:22.599Z,2.13
2022-09-22T11:15:54.286Z,1.70
2022-09-22T11:20:34.356Z,1.80
2022-09-22T11:25:06.315Z,1.45
2022-09-22T11:29:56.635Z,1.40
2022-09-22T11:34:44.064Z,1.50
2022-09-22T11:39:20.458Z,1.33
2022-09-22T11:43:59.203Z,1.50
2022-09-22T11:48:27.297Z,1.50
2022-09-22T11:52:58.408Z,1.60
2022-09-22T11:57:17.382Z,1.77
2022-09-22T12:01:37.292Z,1.30
2022-09-22T12:05:55.716Z,1.30
2022-09-22T12:10:17.631Z,1.42
2022-09-22T12:14:32.196Z,1.30
2022-09-22T12:18:55.307Z,1.20
2022-09-22T12:23:38.259Z,1.20
2022-09-22T12:27:58.668Z,1.42
2022-09-22T12:32:25.106Z,1.43
2022-09-22T12:36:43.325Z,1.50
2022-09-22T12:41:00.017Z,1.52
2022-09-22T12:45:23.536Z,1.52
2022-09-22T12:49:49.149Z,1.40
2022-09-22T12:54:36.651Z,1.67
2022-09-22T12:58:50.425Z,2.00
2022-09-22T13:03:41.451Z,1.53
2022-09-22T13:07:56.495Z,1.65
2022-09-22T13:12:28.916Z,1.20
2022-09-22T13:16:43.441Z,1.50
2022-09-22T13:20:57.546Z,1.83
2022-09-22T13:25:32.863Z,1.95
2022-09-22T13:29:59.813Z,1.90
2022-09-22T13:34:28.017Z,1.33
2022-09-22T13:38:44.294Z,1.70
2022-09-22T13:43:01.362Z,1.63
2022-09-22T13:47:21.403Z,1.60
2022-09-22T13:51:35.451Z,1.40
2022-09-22T13:55:50.730Z,1.40
2022-09-22T14:00:06.417Z,1.50
2022-09-22T14:04:27.431Z,1.30
2022-09-22T14:08:42.372Z,1.30
2022-09-22T14:12:56.905Z,2.15
2022-09-22T14:17:17.012Z,1.37
2022-09-22T14:21:33.374Z,1.33
2022-09-22T14:25:47.508Z,1.20
2022-09-22T14:30:02.134Z,1.53
2022-09-22T14:34:22.479Z,1.23
2022-09-22T14:38:43.196Z,1.50
2022-09-22T14:43:03.145Z,1.40
2022-09-22T14:47:25.813Z,1.30
2022-09-22T14:51:39.561Z,1.55
2022-09-22T14:56:07.534Z,2.88
2022-09-22T15:00:39.540Z,1.33
2022-09-22T15:04:54.608Z,1.25
2022-09-22T15:09:31.697Z,1.30
2022-09-22T15:13:50.850Z,1.37
2022-09-22T15:18:42.086Z,1.30
2022-09-22T15:23:21.542Z,1.20
2022-09-22T15:27:35.668Z,1.40
2022-09-22T15:31:50.982Z,1.33
2022-09-22T15:36:12.791Z,1.50
2022-09-22T15:40:26.592Z,1.73
2022-09-22T15:44:40.901Z,1.40
2022-09-22T15:48:59.906Z,1.40
2022-09-22T15:53:13.749Z,1.20
2022-09-22T15:57:28.093Z,1.50
2022-09-22T16:01:41.805Z,1.20
2022-09-22T16:06:00.451Z,1.40
2022-09-22T16:10:15.996Z,1.40
2022-09-22T16:14:29.761Z,1.50
2022-09-22T16:18:43.960Z,1.40
2022-09-22T16:22:59.204Z,1.60
2022-09-22T16:27:13.413Z,1.40
2022-09-22T16:31:27.554Z,1.40
2022-09-22T16:35:41.956Z,1.20
2022-09-22T16:39:57.545Z,1.43
2022-09-22T16:44:14.807Z,1.25
2022-09-22T16:48:36.813Z,1.30
2022-09-22T16:52:53.799Z,1.50
2022-09-22T16:57:11.295Z,1.40
2022-09-22T17:01:27.752Z,1.55
2022-09-22T17:05:41.712Z,1.42
2022-09-22T17:09:56.122Z,1.60
2022-09-22T17:14:15.541Z,1.55
2022-09-22T17:18:31.148Z,1.60
2022-09-22T17:22:47.012Z,1.83
2022-09-22T17:27:03.627Z,1.80
2022-09-22T17:31:19.173Z,1.85
2022-09-22T17:35:33.727Z,2.10
2022-09-22T17:39:47.545Z,1.80
2022-09-22T17:44:03.384Z,2.30
2022-09-22T17:48:36.263Z,2.00
2022-09-22T17:53:08.164Z,2.03
2022-09-22T17:57:23.944Z,2.05
2022-09-22T18:01:37.656Z,1.88
2022-09-22T18:05:54.437Z,2.17
2022-09-22T18:10:09.598Z,2.10
2022-09-22T18:14:30.794Z,2.67
2022-09-22T18:18:44.571Z,2.43
2022-09-22T18:23:02.734Z,2.72
2022-09-22T18:27:17.811Z,2.35
2022-09-22T18:31:32.753Z,2.80
2022-09-22T18:35:50.933Z,3.10
2022-09-22T18:40:06.670Z,3.90
2022-09-22T18:44:20.615Z,4.63
2022-09-22T18:48:34.284Z,4.80
2022-09-22T18:52:48.708Z,5.10
2022-09-22T18:57:04.452Z,4.90
2022-09-22T19:01:20.478Z,5.27
2022-09-22T19:05:34.350Z,5.07
2022-09-22T19:09:49.425Z,4.32
2022-09-22T19:14:04.585Z,3.95
2022-09-22T19:18:30.245Z,4.87
2022-09-22T19:22:50.699Z,4.95
2022-09-22T19:27:05.545Z,5.00
2022-09-22T19:31:20.711Z,5.13
2022-09-22T19:35:39.025Z,5.93
2022-09-22T19:39:53.229Z,4.80
2022-09-22T19:44:10.113Z,4.70
2022-09-22T19:48:28.911Z,4.70
2022-09-22T19:52:42.771Z,4.30
2022-09-22T19:56:56.832Z,4.72
2022-09-22T20:01:11.419Z,5.00
2022-09-22T20:05:34.783Z,4.53
2022-09-22T20:09:53.806Z,4.70
2022-09-22T20:14:31.591Z,4.70
2022-09-22T20:18:56.858Z,4.93
2022-09-22T20:23:22.671Z,4.78
2022-09-22T20:27:37.260Z,5.00
2022-09-22T20:31:56.174Z,4.90
2022-09-22T20:36:11.427Z,4.90
2022-09-22T20:40:29.722Z,5.35
2022-09-22T20:44:44.029Z,4.97
2022-09-22T20:49:04.084Z,5.05
2022-09-22T20:53:23.076Z,5.38
2022-09-22T20:57:39.000Z,5.40
2022-09-22T21:01:52.695Z,5.28
2022-09-22T21:06:08.799Z,5.45
2022-09-22T21:10:37.395Z,7.37
2022-09-22T21:14:52.996Z,6.28
2022-09-22T21:19:07.739Z,5.85
2022-09-22T21:23:24.342Z,5.82
2022-09-22T21:27:38.558Z,6.00
2022-09-22T21:31:53.673Z,5.05
2022-09-22T21:36:14.963Z,5.85
2022-09-22T21:40:28.723Z,5.47
2022-09-22T21:44:44.610Z,5.70
2022-09-22T21:49:01.983Z,5.80
2022-09-22T21:53:15.997Z,5.70
2022-09-22T21:57:32.112Z,6.45
2022-09-22T22:01:46.051Z,5.93
2022-09-22T22:06:13.515Z,6.20
2022-09-22T22:10:33.132Z,6.30
2022-09-22T22:14:47.391Z,6.07
2022-09-22T22:19:07.049Z,7.07
2022-09-22T22:23:34.635Z,6.20
2022-09-22T22:27:48.395Z,6.35
2022-09-22T22:32:03.111Z,6.93
2022-09-22T22:36:20.104Z,7.03
2022-09-22T22:40:37.090Z,7.05
2022-09-22T22:44:52.757Z,6.80
2022-09-22T22:49:07.641Z,6.68
2022-09-22T22:53:26.208Z,6.10
2022-09-22T22:57:41.642Z,7.20
2022-09-22T23:01:57.516Z,6.68
2022-09-22T23:06:13.790Z,6.60
2022-09-22T23:10:32.112Z,6.80
2022-09-22T23:14:57.794Z,6.85
2022-09-22T23:19:15.541Z,6.93
2022-09-22T23:23:35.740Z,6.82
2022-09-22T23:27:50.526Z,6.78
2022-09-22T23:32:06.762Z,6.55
2022-09-22T23:36:29.051Z,6.77
2022-09-22T23:40:43.226Z,6.78
2022-09-22T23:45:22.582Z,6.30
2022-09-22T23:49:43.126Z,7.07
2022-09-22T23:53:57.326Z,6.55
2022-09-22T23:58:27.502Z,6.90
